createdAt,value
2023-05-09T00:00:15.371Z,100825.02
2023-05-09T00:03:20.870Z,100833.58
2023-05-09T00:06:26.196Z,100825.86
2023-05-09T00:09:31.761Z,100831.82
2023-05-09T00:12:37.580Z,100829.96
2023-05-09T00:15:43.587Z,100827.75
2023-05-09T00:18:43.902Z,100831.51
2023-05-09T00:21:30.611Z,100836.29
2023-05-09T00:24:22.590Z,100832.70
2023-05-09T00:27:15.334Z,100830.99
2023-05-09T00:30:36.476Z,100833.54
2023-05-09T00:33:42.648Z,100844.67
2023-05-09T00:36:49.247Z,100837.83
2023-05-09T00:39:54.806Z,100828.92
2023-05-09T00:43:00.414Z,100836.44
2023-05-09T00:46:06.231Z,100835.57
2023-05-09T00:49:12.071Z,100833.75
2023-05-09T00:52:17.964Z,100832.00
2023-05-09T00:55:23.764Z,100825.31
2023-05-09T00:58:29.703Z,100835.92
2023-05-09T01:01:34.892Z,100841.40
2023-05-09T01:04:42.357Z,100842.11
2023-05-09T01:08:05.841Z,100839.89
2023-05-09T01:11:21.676Z,100836.81
2023-05-09T01:14:49.197Z,100841.93
2023-05-09T01:18:15.726Z,100836.45
2023-05-09T01:21:24.482Z,100846.68
2023-05-09T01:25:12.204Z,100851.20
2023-05-09T01:28:38.625Z,100844.36
2023-05-09T01:31:43.813Z,100843.16
2023-05-09T01:34:50.829Z,100839.17
2023-05-09T01:37:58.413Z,100840.03
2023-05-09T01:41:07.046Z,100844.83
2023-05-09T01:44:12.182Z,100849.30
2023-05-09T01:47:18.464Z,100850.16
2023-05-09T01:50:26.023Z,100849.09
2023-05-09T01:53:30.890Z,100846.19
2023-05-09T01:56:36.327Z,100851.50
2023-05-09T01:59:35.817Z,100844.67
2023-05-09T02:02:22.093Z,100842.98
2023-05-09T02:05:18.200Z,100842.78
2023-05-09T02:08:05.125Z,100849.05
2023-05-09T02:10:58.525Z,100854.49
2023-05-09T02:13:43.578Z,100855.37
2023-05-09T02:16:37.243Z,100848.88
2023-05-09T02:19:23.990Z,100848.69
2023-05-09T02:22:17.267Z,100855.37
2023-05-09T02:25:12.007Z,100852.78
2023-05-09T02:28:17.369Z,100849.53
2023-05-09T02:31:23.701Z,100852.45
2023-05-09T02:34:30.154Z,100853.48
2023-05-09T02:37:35.587Z,100849.88
2023-05-09T02:40:42.001Z,100853.48
2023-05-09T02:43:49.021Z,100859.61
2023-05-09T02:46:55.368Z,100855.49
2023-05-09T02:50:01.028Z,100844.50
2023-05-09T02:53:06.536Z,100854.08
2023-05-09T02:56:13.238Z,100857.52
2023-05-09T02:59:19.335Z,100862.03
2023-05-09T03:02:25.060Z,100869.78
2023-05-09T03:05:30.008Z,100869.66
2023-05-09T03:08:35.974Z,100862.67
2023-05-09T03:11:43.636Z,100868.45
2023-05-09T03:14:49.411Z,100869.53
2023-05-09T03:17:55.861Z,100871.92
2023-05-09T03:21:01.807Z,100875.71
2023-05-09T03:24:07.513Z,100881.34
2023-05-09T03:27:13.327Z,100881.11
2023-05-09T03:30:20.265Z,100886.63
2023-05-09T03:33:25.981Z,100888.36
2023-05-09T03:36:32.388Z,100889.73
2023-05-09T03:39:38.412Z,100901.27
2023-05-09T03:42:36.836Z,100897.87
2023-05-09T03:45:36.360Z,100899.41
2023-05-09T03:48:43.139Z,100904.23
2023-05-09T03:51:48.794Z,100898.28
2023-05-09T03:54:54.927Z,100907.05
2023-05-09T03:58:02.663Z,100905.34
2023-05-09T04:01:08.916Z,100907.73
2023-05-09T04:04:14.763Z,100912.88
2023-05-09T04:07:20.594Z,100913.95
2023-05-09T04:10:26.503Z,100917.02
2023-05-09T04:13:35.397Z,100920.29
2023-05-09T04:16:43.441Z,100920.17
2023-05-09T04:19:48.364Z,100922.24
2023-05-09T04:22:55.179Z,100919.85
2023-05-09T04:26:03.543Z,100922.59
2023-05-09T04:29:09.316Z,100925.34
2023-05-09T04:32:17.086Z,100926.00
2023-05-09T04:35:23.583Z,100924.28
2023-05-09T04:38:28.700Z,100930.80
2023-05-09T04:41:36.861Z,100920.16
2023-05-09T04:44:43.239Z,100925.31
2023-05-09T04:47:47.893Z,100922.58
2023-05-09T04:50:55.090Z,100929.09
2023-05-09T04:54:01.628Z,100931.81
2023-05-09T04:57:17.287Z,100927.69
2023-05-09T05:00:17.740Z,100933.69
2023-05-09T05:03:25.433Z,100933.50
2023-05-09T05:06:31.277Z,100936.91
2023-05-09T05:09:37.271Z,100934.12
2023-05-09T05:12:44.499Z,100934.70
2023-05-09T05:15:51.401Z,100937.12
2023-05-09T05:18:57.220Z,100942.45
2023-05-09T05:22:06.806Z,100944.03
2023-05-09T05:25:05.599Z,100936.80
2023-05-09T05:28:11.703Z,100934.41
2023-05-09T05:31:17.393Z,100932.33
2023-05-09T05:34:26.554Z,100936.01
2023-05-09T05:37:33.145Z,100927.81
2023-05-09T05:40:38.655Z,100933.82
2023-05-09T05:43:45.154Z,100935.06
2023-05-09T05:46:51.078Z,100928.54
2023-05-09T05:49:58.920Z,100931.71
2023-05-09T05:53:05.826Z,100933.50
2023-05-09T05:56:11.225Z,100942.78
2023-05-09T05:59:17.774Z,100939.91
2023-05-09T06:02:24.061Z,100941.20
2023-05-09T06:05:30.089Z,100945.37
2023-05-09T06:08:36.651Z,100947.04
2023-05-09T06:11:42.304Z,100944.20
2023-05-09T06:14:47.822Z,100943.77
2023-05-09T06:17:47.640Z,100941.36
2023-05-09T06:20:43.032Z,100941.63
2023-05-09T06:24:05.866Z,100947.09
2023-05-09T06:26:54.570Z,100946.73
2023-05-09T06:30:01.406Z,100945.59
2023-05-09T06:33:07.899Z,100944.91
2023-05-09T06:36:14.407Z,100946.08
2023-05-09T06:39:19.324Z,100945.13
2023-05-09T06:42:26.585Z,100946.48
2023-05-09T06:45:32.462Z,100947.64
2023-05-09T06:48:30.930Z,100942.39
2023-05-09T06:51:23.921Z,100947.58
2023-05-09T06:54:29.367Z,100939.48
2023-05-09T06:57:35.269Z,100947.58
2023-05-09T07:00:33.996Z,100944.09
2023-05-09T07:03:39.526Z,100947.59
2023-05-09T07:06:44.843Z,100940.67
2023-05-09T07:09:52.891Z,100943.08
2023-05-09T07:12:58.049Z,100940.44
2023-05-09T07:16:06.408Z,100936.20
2023-05-09T07:19:14.248Z,100932.81
2023-05-09T07:22:20.657Z,100929.90
2023-05-09T07:25:25.900Z,100937.12
2023-05-09T07:28:32.341Z,100933.89
2023-05-09T07:31:38.254Z,100925.66
2023-05-09T07:34:43.981Z,100921.45
2023-05-09T07:37:49.506Z,100925.24
2023-05-09T07:40:56.085Z,100919.08
2023-05-09T07:44:02.836Z,100913.95
2023-05-09T07:47:09.839Z,100909.66
2023-05-09T07:50:16.560Z,100910.59
2023-05-09T07:53:22.366Z,100908.09
2023-05-09T07:56:28.237Z,100893.77
2023-05-09T07:59:33.674Z,100904.71
2023-05-09T08:02:38.912Z,100896.89
2023-05-09T08:05:45.652Z,100899.70
2023-05-09T08:08:52.280Z,100892.93
2023-05-09T08:11:58.667Z,100893.45
2023-05-09T08:15:04.486Z,100888.61
2023-05-09T08:18:10.896Z,100892.70
2023-05-09T08:21:16.909Z,100885.94
2023-05-09T08:24:25.355Z,100884.41
2023-05-09T08:27:32.403Z,100872.18
2023-05-09T08:30:38.373Z,100874.75
2023-05-09T08:33:43.564Z,100871.34
2023-05-09T08:36:48.547Z,100867.29
2023-05-09T08:39:55.718Z,100865.26
2023-05-09T08:43:01.648Z,100866.55
2023-05-09T08:46:09.666Z,100875.94
2023-05-09T08:49:16.108Z,100871.12
2023-05-09T08:52:15.716Z,100881.77
2023-05-09T08:55:20.434Z,100870.34
2023-05-09T08:58:26.896Z,100876.78
2023-05-09T09:01:36.522Z,100881.14
2023-05-09T09:04:42.096Z,100881.23
2023-05-09T09:07:51.424Z,100881.14
2023-05-09T09:10:57.224Z,100880.32
2023-05-09T09:14:02.995Z,100882.44
2023-05-09T09:17:09.993Z,100892.39
2023-05-09T09:20:17.771Z,100885.01
2023-05-09T09:23:24.204Z,100874.27
2023-05-09T09:26:29.550Z,100873.48
2023-05-09T09:29:36.038Z,100875.58
2023-05-09T09:32:49.463Z,100867.70
2023-05-09T09:35:55.881Z,100870.30
2023-05-09T09:39:01.672Z,100866.98
2023-05-09T09:42:08.442Z,100869.95
2023-05-09T09:45:23.746Z,100865.62
2023-05-09T09:48:22.622Z,100862.66
2023-05-09T09:51:25.020Z,100865.69
2023-05-09T09:54:30.433Z,100857.50
2023-05-09T09:57:55.003Z,100856.57
2023-05-09T10:00:59.893Z,100854.80
2023-05-09T10:04:05.427Z,100871.38
2023-05-09T10:07:15.069Z,100856.67
2023-05-09T10:10:21.741Z,100853.19
2023-05-09T10:13:27.256Z,100862.98
2023-05-09T10:16:43.717Z,100858.84
2023-05-09T10:19:40.395Z,100863.30
2023-05-09T10:22:51.320Z,100854.82
2023-05-09T10:26:03.023Z,100854.45
2023-05-09T10:29:10.679Z,100859.97
2023-05-09T10:32:20.323Z,100864.48
2023-05-09T10:35:26.390Z,100852.34
2023-05-09T10:38:45.636Z,100858.10
2023-05-09T10:41:52.286Z,100855.36
2023-05-09T10:44:58.461Z,100853.30
2023-05-09T10:48:05.424Z,100858.37
2023-05-09T10:51:05.448Z,100865.61
2023-05-09T10:54:11.427Z,100852.11
2023-05-09T10:57:17.281Z,100868.98
2023-05-09T11:00:23.389Z,100864.14
2023-05-09T11:03:28.309Z,100876.12
2023-05-09T11:06:59.126Z,100885.03
2023-05-09T11:10:24.391Z,100859.05
2023-05-09T11:13:31.274Z,100880.26
2023-05-09T11:16:37.739Z,100878.80
2023-05-09T11:19:53.700Z,100862.17
2023-05-09T11:22:59.558Z,100857.18
2023-05-09T11:26:04.709Z,100864.20
2023-05-09T11:29:10.430Z,100869.85
2023-05-09T11:32:22.865Z,100865.95
2023-05-09T11:35:34.882Z,100878.64
2023-05-09T11:38:40.246Z,100865.02
2023-05-09T11:41:46.680Z,100862.11
2023-05-09T11:44:56.046Z,100875.40
2023-05-09T11:48:04.406Z,100866.92
2023-05-09T11:51:12.749Z,100860.76
2023-05-09T11:54:21.529Z,100856.42
2023-05-09T11:57:26.610Z,100866.86
2023-05-09T12:00:33.404Z,100858.86
2023-05-09T12:03:38.448Z,100868.19
2023-05-09T12:06:37.917Z,100860.38
2023-05-09T12:09:50.783Z,100848.94
2023-05-09T12:13:03.469Z,100855.88
2023-05-09T12:16:15.736Z,100851.13
2023-05-09T12:19:22.339Z,100845.27
2023-05-09T12:22:29.541Z,100848.19
2023-05-09T12:25:30.224Z,100838.30
2023-05-09T12:28:38.356Z,100843.06
2023-05-09T12:31:44.448Z,100839.90
2023-05-09T12:34:55.124Z,100842.91
2023-05-09T12:38:12.825Z,100840.25
2023-05-09T12:41:35.096Z,100830.33
2023-05-09T12:44:39.087Z,100839.34
2023-05-09T12:47:47.007Z,100830.52
2023-05-09T12:50:46.095Z,100834.13
2023-05-09T12:53:55.252Z,100829.31
2023-05-09T12:57:02.289Z,100826.00
2023-05-09T13:00:11.107Z,100823.73
2023-05-09T13:03:17.112Z,100819.59
2023-05-09T13:06:28.242Z,100814.64
2023-05-09T13:09:26.907Z,100818.67
2023-05-09T13:12:21.036Z,100811.20
2023-05-09T13:15:28.092Z,100819.59
2023-05-09T13:18:34.389Z,100811.63
2023-05-09T13:21:39.943Z,100807.63
2023-05-09T13:24:46.125Z,100809.41
2023-05-09T13:27:52.666Z,100810.75
2023-05-09T13:30:58.475Z,100809.17
2023-05-09T13:34:04.318Z,100808.28
2023-05-09T13:37:10.625Z,100812.98
2023-05-09T13:40:16.275Z,100808.33
2023-05-09T13:43:22.845Z,100806.75
2023-05-09T13:46:28.376Z,100804.93
2023-05-09T13:49:35.260Z,100806.01
2023-05-09T13:52:40.632Z,100806.45
2023-05-09T13:55:46.725Z,100808.16
2023-05-09T13:58:55.396Z,100796.90
2023-05-09T14:02:00.386Z,100798.06
2023-05-09T14:05:08.989Z,100794.34
2023-05-09T14:08:14.364Z,100793.06
2023-05-09T14:11:20.185Z,100793.80
2023-05-09T14:14:26.616Z,100796.55
2023-05-09T14:17:32.310Z,100791.53
2023-05-09T14:20:39.281Z,100791.52
2023-05-09T14:23:45.580Z,100798.97
2023-05-09T14:26:52.136Z,100793.38
2023-05-09T14:29:57.812Z,100788.39
2023-05-09T14:33:04.614Z,100786.31
2023-05-09T14:36:13.120Z,100788.92
2023-05-09T14:39:19.936Z,100786.38
2023-05-09T14:42:20.046Z,100792.17
2023-05-09T14:45:26.207Z,100793.30
2023-05-09T14:48:32.162Z,100789.69
2023-05-09T14:51:38.466Z,100789.09
2023-05-09T14:54:44.134Z,100784.77
2023-05-09T14:57:49.861Z,100785.50
2023-05-09T15:00:50.293Z,100782.37
2023-05-09T15:03:55.991Z,100780.05
2023-05-09T15:07:03.103Z,100781.78
2023-05-09T15:10:10.593Z,100779.71
2023-05-09T15:13:17.228Z,100777.31
2023-05-09T15:16:23.508Z,100783.80
2023-05-09T15:19:29.214Z,100778.73
2023-05-09T15:22:34.450Z,100784.47
2023-05-09T15:25:39.240Z,100782.69
2023-05-09T15:28:44.011Z,100784.80
2023-05-09T15:31:50.622Z,100786.15
2023-05-09T15:34:55.960Z,100786.45
2023-05-09T15:38:01.955Z,100785.12
2023-05-09T15:41:07.656Z,100783.97
2023-05-09T15:44:14.218Z,100783.31
2023-05-09T15:47:19.718Z,100787.64
2023-05-09T15:50:19.469Z,100787.33
2023-05-09T15:53:12.298Z,100788.04
2023-05-09T15:56:16.861Z,100783.70
2023-05-09T15:59:22.529Z,100780.35
2023-05-09T16:02:29.004Z,100783.04
2023-05-09T16:05:34.884Z,100781.84
2023-05-09T16:08:41.476Z,100782.09
2023-05-09T16:11:48.200Z,100773.89
2023-05-09T16:14:47.026Z,100779.44
2023-05-09T16:17:39.122Z,100775.39
2023-05-09T16:20:44.798Z,100782.55
2023-05-09T16:23:50.771Z,100775.34
2023-05-09T16:26:58.463Z,100775.30
2023-05-09T16:30:04.371Z,100775.19
2023-05-09T16:33:10.553Z,100769.13
2023-05-09T16:36:16.167Z,100768.66
2023-05-09T16:39:21.861Z,100776.95
2023-05-09T16:42:27.239Z,100773.93
2023-05-09T16:45:32.498Z,100769.20
2023-05-09T16:48:38.495Z,100782.63
2023-05-09T16:51:44.331Z,100781.78
2023-05-09T16:54:50.173Z,100776.11
2023-05-09T16:57:56.137Z,100778.66
2023-05-09T17:01:01.831Z,100775.84
2023-05-09T17:04:08.700Z,100779.19
2023-05-09T17:07:14.198Z,100780.66
2023-05-09T17:10:19.404Z,100791.08
2023-05-09T17:13:25.553Z,100793.53
2023-05-09T17:16:32.448Z,100793.92
2023-05-09T17:19:39.156Z,100798.11
2023-05-09T17:22:44.648Z,100799.56
2023-05-09T17:25:49.916Z,100795.72
2023-05-09T17:28:56.844Z,100793.20
2023-05-09T17:32:05.106Z,100797.53
2023-05-09T17:35:11.788Z,100796.16
2023-05-09T17:38:17.649Z,100801.12
2023-05-09T17:41:23.132Z,100802.72
2023-05-09T17:44:29.635Z,100803.27
2023-05-09T17:47:36.240Z,100796.19
2023-05-09T17:50:42.413Z,100805.37
2023-05-09T17:53:48.286Z,100804.83
2023-05-09T17:56:56.679Z,100813.30
2023-05-09T18:00:01.494Z,100808.70
2023-05-09T18:03:08.289Z,100809.38
2023-05-09T18:06:15.002Z,100814.80
2023-05-09T18:09:20.769Z,100819.05
2023-05-09T18:12:26.524Z,100822.23
2023-05-09T18:15:33.631Z,100823.33
2023-05-09T18:18:39.275Z,100821.68
2023-05-09T18:21:45.218Z,100818.20
2023-05-09T18:24:51.883Z,100825.75
2023-05-09T18:27:58.913Z,100829.91
2023-05-09T18:31:06.914Z,100824.59
2023-05-09T18:34:13.476Z,100829.18
2023-05-09T18:37:19.171Z,100831.23
2023-05-09T18:40:25.027Z,100833.64
2023-05-09T18:43:30.859Z,100826.87
2023-05-09T18:46:37.589Z,100821.42
2023-05-09T18:49:44.953Z,100822.72
2023-05-09T18:52:52.733Z,100824.30
2023-05-09T18:55:52.565Z,100820.94
2023-05-09T18:58:58.865Z,100823.63
2023-05-09T19:02:05.075Z,100823.08
2023-05-09T19:05:13.078Z,100819.33
2023-05-09T19:08:18.875Z,100828.70
2023-05-09T19:11:24.777Z,100825.80
2023-05-09T19:14:30.887Z,100830.45
2023-05-09T19:17:37.385Z,100822.03
2023-05-09T19:20:39.530Z,100821.84
2023-05-09T19:23:34.196Z,100823.58
2023-05-09T19:26:32.873Z,100820.84
2023-05-09T19:29:39.218Z,100820.16
2023-05-09T19:32:45.977Z,100816.83
2023-05-09T19:35:51.772Z,100824.48
2023-05-09T19:38:57.902Z,100827.47
2023-05-09T19:42:02.932Z,100825.25
2023-05-09T19:45:08.414Z,100818.72
2023-05-09T19:48:13.710Z,100818.72
2023-05-09T19:51:20.880Z,100824.92
2023-05-09T19:54:26.217Z,100821.98
2023-05-09T19:57:31.817Z,100824.25
2023-05-09T20:00:38.431Z,100828.84
2023-05-09T20:03:43.576Z,100829.36
2023-05-09T20:06:50.313Z,100823.19
2023-05-09T20:09:57.961Z,100819.09
2023-05-09T20:13:05.960Z,100820.13
2023-05-09T20:16:12.895Z,100817.73
2023-05-09T20:19:20.744Z,100817.03
2023-05-09T20:22:25.560Z,100815.30
2023-05-09T20:25:30.985Z,100818.06
2023-05-09T20:28:36.235Z,100817.53
2023-05-09T20:31:43.346Z,100812.58
2023-05-09T20:34:50.042Z,100821.50
2023-05-09T20:37:56.546Z,100815.98
2023-05-09T20:41:02.918Z,100811.58
2023-05-09T20:44:10.805Z,100810.54
2023-05-09T20:47:16.299Z,100809.15
2023-05-09T20:50:22.314Z,100812.25
2023-05-09T20:53:27.661Z,100808.47
2023-05-09T20:56:34.870Z,100813.95
2023-05-09T20:59:41.083Z,100810.50
2023-05-09T21:02:47.561Z,100808.31
2023-05-09T21:05:54.110Z,100814.31
2023-05-09T21:08:59.749Z,100815.14
2023-05-09T21:12:04.634Z,100813.43
2023-05-09T21:15:10.589Z,100819.80
2023-05-09T21:18:15.939Z,100807.77
2023-05-09T21:21:21.573Z,100816.17
2023-05-09T21:24:26.873Z,100812.56
2023-05-09T21:27:32.641Z,100813.24
2023-05-09T21:30:38.695Z,100813.92
2023-05-09T21:33:44.001Z,100813.41
2023-05-09T21:36:48.913Z,100811.31
2023-05-09T21:39:54.606Z,100811.19
2023-05-09T21:43:01.804Z,100811.58
2023-05-09T21:46:08.078Z,100806.92
2023-05-09T21:49:14.966Z,100803.65
2023-05-09T21:52:20.501Z,100805.20
2023-05-09T21:55:26.007Z,100799.72
2023-05-09T21:58:31.837Z,100804.61
2023-05-09T22:01:38.194Z,100800.19
2023-05-09T22:04:43.058Z,100800.90
2023-05-09T22:07:41.895Z,100798.12
2023-05-09T22:10:47.377Z,100799.13
2023-05-09T22:13:53.093Z,100795.66
2023-05-09T22:16:58.051Z,100798.03
2023-05-09T22:20:03.632Z,100799.44
2023-05-09T22:23:09.181Z,100802.63
2023-05-09T22:26:14.640Z,100803.66
2023-05-09T22:29:21.480Z,100799.56
2023-05-09T22:32:28.456Z,100798.41
2023-05-09T22:35:34.022Z,100796.02
2023-05-09T22:38:40.085Z,100795.36
2023-05-09T22:41:46.865Z,100801.00
2023-05-09T22:44:52.824Z,100799.34
2023-05-09T22:47:58.654Z,100794.06
2023-05-09T22:51:04.075Z,100794.71
2023-05-09T22:54:10.445Z,100790.11
2023-05-09T22:57:16.683Z,100787.06
2023-05-09T23:00:23.357Z,100785.59
2023-05-09T23:03:30.259Z,100785.94
2023-05-09T23:06:36.635Z,100786.04
2023-05-09T23:09:41.835Z,100784.27
2023-05-09T23:12:46.887Z,100781.39
2023-05-09T23:15:52.361Z,100784.88
2023-05-09T23:18:58.184Z,100785.39
2023-05-09T23:22:05.685Z,100779.11
2023-05-09T23:25:11.160Z,100782.71
2023-05-09T23:28:16.138Z,100785.53
2023-05-09T23:31:22.131Z,100782.37
2023-05-09T23:34:27.046Z,100780.49
2023-05-09T23:37:31.918Z,100785.78
2023-05-09T23:40:37.536Z,100784.92
2023-05-09T23:43:43.568Z,100777.92
2023-05-09T23:46:49.051Z,100782.03
2023-05-09T23:49:54.791Z,100783.64
2023-05-09T23:53:00.265Z,100778.95
2023-05-09T23:56:05.547Z,100776.19
2023-05-09T23:59:04.308Z,100775.45
